sensor_id;sensor_type;location;lat;lon;timestamp;P1;durP1;ratioP1;P2;durP2;ratioP2
10550;SDS011;5324;50.684;3.862;2023-04-22T00:01:02;17.17;;;13.73;;
10550;SDS011;5324;50.684;3.862;2023-04-22T00:03:28;19.50;;;13.10;;
10550;SDS011;5324;50.684;3.862;2023-04-22T00:05:54;17.27;;;13.33;;
10550;SDS011;5324;50.684;3.862;2023-04-22T00:08:20;15.90;;;12.53;;
10550;SDS011;5324;50.684;3.862;2023-04-22T00:10:46;16.13;;;13.03;;
10550;SDS011;5324;50.684;3.862;2023-04-22T00:13:12;18.00;;;13.60;;
10550;SDS011;5324;50.684;3.862;2023-04-22T00:15:38;26.10;;;15.40;;
10550;SDS011;5324;50.684;3.862;2023-04-22T00:18:04;19.20;;;14.53;;
10550;SDS011;5324;50.684;3.862;2023-04-22T00:20:31;21.53;;;13.33;;
10550;SDS011;5324;50.684;3.862;2023-04-22T00:22:57;17.70;;;13.93;;
10550;SDS011;5324;50.684;3.862;2023-04-22T00:25:23;17.47;;;13.50;;
10550;SDS011;5324;50.684;3.862;2023-04-22T00:27:49;23.77;;;14.60;;
10550;SDS011;5324;50.684;3.862;2023-04-22T00:30:15;24.00;;;14.53;;
10550;SDS011;5324;50.684;3.862;2023-04-22T00:32:41;21.30;;;15.13;;
10550;SDS011;5324;50.684;3.862;2023-04-22T00:35:07;28.33;;;13.17;;
10550;SDS011;5324;50.684;3.862;2023-04-22T00:37:33;20.73;;;13.27;;
10550;SDS011;5324;50.684;3.862;2023-04-22T00:39:59;26.23;;;13.43;;
10550;SDS011;5324;50.684;3.862;2023-04-22T00:42:25;17.17;;;12.93;;
10550;SDS011;5324;50.684;3.862;2023-04-22T00:44:51;16.53;;;12.03;;
10550;SDS011;5324;50.684;3.862;2023-04-22T00:47:18;23.00;;;12.30;;
10550;SDS011;5324;50.684;3.862;2023-04-22T00:49:44;18.57;;;12.97;;
10550;SDS011;5324;50.684;3.862;2023-04-22T00:52:11;16.23;;;12.27;;
10550;SDS011;5324;50.684;3.862;2023-04-22T00:54:37;14.37;;;11.80;;
10550;SDS011;5324;50.684;3.862;2023-04-22T00:57:03;19.40;;;9.93;;
10550;SDS011;5324;50.684;3.862;2023-04-22T00:59:30;14.03;;;11.03;;
10550;SDS011;5324;50.684;3.862;2023-04-22T01:01:56;16.33;;;10.67;;
10550;SDS011;5324;50.684;3.862;2023-04-22T01:04:22;13.50;;;11.07;;
10550;SDS011;5324;50.684;3.862;2023-04-22T01:06:50;14.97;;;9.90;;
10550;SDS011;5324;50.684;3.862;2023-04-22T01:09:18;15.10;;;10.33;;
10550;SDS011;5324;50.684;3.862;2023-04-22T01:11:45;14.20;;;10.77;;
10550;SDS011;5324;50.684;3.862;2023-04-22T01:14:11;11.33;;;10.10;;
10550;SDS011;5324;50.684;3.862;2023-04-22T01:16:38;12.30;;;10.33;;
10550;SDS011;5324;50.684;3.862;2023-04-22T01:19:05;11.43;;;10.23;;
10550;SDS011;5324;50.684;3.862;2023-04-22T01:21:32;12.23;;;10.70;;
10550;SDS011;5324;50.684;3.862;2023-04-22T01:24:00;12.40;;;10.03;;
10550;SDS011;5324;50.684;3.862;2023-04-22T01:26:26;14.17;;;11.70;;
10550;SDS011;5324;50.684;3.862;2023-04-22T01:28:52;15.03;;;12.13;;
10550;SDS011;5324;50.684;3.862;2023-04-22T01:31:18;17.50;;;12.80;;
10550;SDS011;5324;50.684;3.862;2023-04-22T01:33:44;15.53;;;12.07;;
10550;SDS011;5324;50.684;3.862;2023-04-22T01:36:12;16.77;;;11.77;;
10550;SDS011;5324;50.684;3.862;2023-04-22T01:38:38;14.87;;;12.53;;
10550;SDS011;5324;50.684;3.862;2023-04-22T01:41:04;14.73;;;11.97;;
10550;SDS011;5324;50.684;3.862;2023-04-22T01:43:30;14.53;;;11.00;;
10550;SDS011;5324;50.684;3.862;2023-04-22T01:45:57;16.63;;;12.27;;
10550;SDS011;5324;50.684;3.862;2023-04-22T01:48:25;14.53;;;11.53;;
10550;SDS011;5324;50.684;3.862;2023-04-22T01:50:52;13.37;;;10.93;;
10550;SDS011;5324;50.684;3.862;2023-04-22T01:53:18;12.13;;;10.83;;
10550;SDS011;5324;50.684;3.862;2023-04-22T01:55:44;15.53;;;11.97;;
10550;SDS011;5324;50.684;3.862;2023-04-22T01:58:10;13.03;;;11.10;;
10550;SDS011;5324;50.684;3.862;2023-04-22T02:00:36;12.80;;;10.20;;
10550;SDS011;5324;50.684;3.862;2023-04-22T02:03:02;13.13;;;11.10;;
10550;SDS011;5324;50.684;3.862;2023-04-22T02:05:28;12.63;;;11.30;;
10550;SDS011;5324;50.684;3.862;2023-04-22T02:07:54;11.87;;;10.40;;
10550;SDS011;5324;50.684;3.862;2023-04-22T02:10:20;14.27;;;10.70;;
10550;SDS011;5324;50.684;3.862;2023-04-22T02:12:46;11.97;;;10.57;;
10550;SDS011;5324;50.684;3.862;2023-04-22T02:15:12;11.07;;;9.73;;
10550;SDS011;5324;50.684;3.862;2023-04-22T02:17:39;13.33;;;10.67;;
10550;SDS011;5324;50.684;3.862;2023-04-22T02:20:06;11.67;;;10.27;;
10550;SDS011;5324;50.684;3.862;2023-04-22T02:22:35;12.33;;;10.67;;
10550;SDS011;5324;50.684;3.862;2023-04-22T02:25:01;12.77;;;11.37;;
10550;SDS011;5324;50.684;3.862;2023-04-22T02:27:28;15.33;;;10.60;;
10550;SDS011;5324;50.684;3.862;2023-04-22T02:29:54;12.43;;;11.00;;
10550;SDS011;5324;50.684;3.862;2023-04-22T02:32:20;14.10;;;10.67;;
10550;SDS011;5324;50.684;3.862;2023-04-22T02:34:47;12.20;;;10.73;;
10550;SDS011;5324;50.684;3.862;2023-04-22T02:37:13;16.70;;;10.57;;
10550;SDS011;5324;50.684;3.862;2023-04-22T02:39:39;12.20;;;10.90;;
10550;SDS011;5324;50.684;3.862;2023-04-22T02:42:05;11.53;;;10.33;;
10550;SDS011;5324;50.684;3.862;2023-04-22T02:44:31;11.80;;;10.60;;
10550;SDS011;5324;50.684;3.862;2023-04-22T02:46:57;13.63;;;10.60;;
10550;SDS011;5324;50.684;3.862;2023-04-22T02:49:23;11.77;;;10.43;;
10550;SDS011;5324;50.684;3.862;2023-04-22T02:51:49;13.53;;;10.40;;
10550;SDS011;5324;50.684;3.862;2023-04-22T02:54:15;12.67;;;10.50;;
10550;SDS011;5324;50.684;3.862;2023-04-22T02:56:41;11.77;;;10.57;;
10550;SDS011;5324;50.684;3.862;2023-04-22T02:59:07;13.27;;;11.57;;
10550;SDS011;5324;50.684;3.862;2023-04-22T03:01:33;12.83;;;11.37;;
10550;SDS011;5324;50.684;3.862;2023-04-22T03:03:59;12.80;;;10.47;;
10550;SDS011;5324;50.684;3.862;2023-04-22T03:06:25;12.93;;;11.27;;
10550;SDS011;5324;50.684;3.862;2023-04-22T03:08:51;12.00;;;10.50;;
10550;SDS011;5324;50.684;3.862;2023-04-22T03:11:17;14.43;;;11.13;;
10550;SDS011;5324;50.684;3.862;2023-04-22T03:13:43;12.23;;;10.93;;
10550;SDS011;5324;50.684;3.862;2023-04-22T03:16:09;13.93;;;10.67;;
10550;SDS011;5324;50.684;3.862;2023-04-22T03:18:35;12.90;;;11.20;;
10550;SDS011;5324;50.684;3.862;2023-04-22T03:21:02;12.37;;;10.47;;
10550;SDS011;5324;50.684;3.862;2023-04-22T03:23:28;12.80;;;10.10;;
10550;SDS011;5324;50.684;3.862;2023-04-22T03:25:55;15.50;;;10.30;;
10550;SDS011;5324;50.684;3.862;2023-04-22T03:28:21;20.77;;;10.27;;
10550;SDS011;5324;50.684;3.862;2023-04-22T03:30:47;14.23;;;10.20;;
10550;SDS011;5324;50.684;3.862;2023-04-22T03:33:13;19.77;;;10.53;;
10550;SDS011;5324;50.684;3.862;2023-04-22T03:35:39;43.00;;;11.20;;
10550;SDS011;5324;50.684;3.862;2023-04-22T03:38:05;45.20;;;9.93;;
10550;SDS011;5324;50.684;3.862;2023-04-22T03:40:31;32.83;;;11.37;;
10550;SDS011;5324;50.684;3.862;2023-04-22T03:42:57;67.07;;;11.50;;
10550;SDS011;5324;50.684;3.862;2023-04-22T03:45:23;26.30;;;11.40;;
10550;SDS011;5324;50.684;3.862;2023-04-22T03:47:49;64.77;;;9.80;;
10550;SDS011;5324;50.684;3.862;2023-04-22T03:50:15;32.77;;;10.47;;
10550;SDS011;5324;50.684;3.862;2023-04-22T03:52:41;20.80;;;10.87;;
10550;SDS011;5324;50.684;3.862;2023-04-22T03:55:07;33.57;;;11.33;;
10550;SDS011;5324;50.684;3.862;2023-04-22T03:57:34;30.07;;;10.70;;
10550;SDS011;5324;50.684;3.862;2023-04-22T04:00:00;16.10;;;11.30;;
10550;SDS011;5324;50.684;3.862;2023-04-22T04:02:26;15.87;;;10.27;;
10550;SDS011;5324;50.684;3.862;2023-04-22T04:04:52;22.63;;;10.87;;
10550;SDS011;5324;50.684;3.862;2023-04-22T04:07:18;13.90;;;10.53;;
10550;SDS011;5324;50.684;3.862;2023-04-22T04:09:44;10.37;;;8.93;;
10550;SDS011;5324;50.684;3.862;2023-04-22T04:12:10;11.70;;;9.40;;
10550;SDS011;5324;50.684;3.862;2023-04-22T04:14:36;18.27;;;9.93;;
10550;SDS011;5324;50.684;3.862;2023-04-22T04:17:02;13.23;;;9.97;;
10550;SDS011;5324;50.684;3.862;2023-04-22T04:19:28;9.30;;;8.40;;
10550;SDS011;5324;50.684;3.862;2023-04-22T04:21:54;12.03;;;9.07;;
10550;SDS011;5324;50.684;3.862;2023-04-22T04:24:21;11.43;;;9.40;;
10550;SDS011;5324;50.684;3.862;2023-04-22T04:26:47;9.77;;;8.57;;
10550;SDS011;5324;50.684;3.862;2023-04-22T04:29:13;9.47;;;8.47;;
10550;SDS011;5324;50.684;3.862;2023-04-22T04:31:40;10.37;;;8.97;;
10550;SDS011;5324;50.684;3.862;2023-04-22T04:34:07;10.43;;;8.80;;
10550;SDS011;5324;50.684;3.862;2023-04-22T04:36:33;10.00;;;8.50;;
10550;SDS011;5324;50.684;3.862;2023-04-22T04:38:59;10.17;;;8.77;;
10550;SDS011;5324;50.684;3.862;2023-04-22T04:41:25;9.67;;;8.63;;
10550;SDS011;5324;50.684;3.862;2023-04-22T04:43:53;11.13;;;9.03;;
10550;SDS011;5324;50.684;3.862;2023-04-22T04:46:20;13.47;;;9.73;;
10550;SDS011;5324;50.684;3.862;2023-04-22T04:48:46;10.60;;;9.20;;
10550;SDS011;5324;50.684;3.862;2023-04-22T04:51:14;9.97;;;8.97;;
10550;SDS011;5324;50.684;3.862;2023-04-22T04:53:40;10.77;;;8.73;;
10550;SDS011;5324;50.684;3.862;2023-04-22T04:56:06;12.33;;;9.33;;
10550;SDS011;5324;50.684;3.862;2023-04-22T04:58:32;10.00;;;8.87;;
10550;SDS011;5324;50.684;3.862;2023-04-22T05:00:58;10.53;;;9.43;;
10550;SDS011;5324;50.684;3.862;2023-04-22T05:03:24;11.13;;;9.53;;
10550;SDS011;5324;50.684;3.862;2023-04-22T05:05:50;10.10;;;8.47;;
10550;SDS011;5324;50.684;3.862;2023-04-22T05:08:16;11.10;;;9.50;;
10550;SDS011;5324;50.684;3.862;2023-04-22T05:10:42;9.53;;;8.60;;
10550;SDS011;5324;50.684;3.862;2023-04-22T05:13:09;12.80;;;10.10;;
10550;SDS011;5324;50.684;3.862;2023-04-22T05:15:35;11.47;;;9.77;;
10550;SDS011;5324;50.684;3.862;2023-04-22T05:18:02;11.10;;;9.70;;
10550;SDS011;5324;50.684;3.862;2023-04-22T05:20:28;10.27;;;9.17;;
10550;SDS011;5324;50.684;3.862;2023-04-22T05:22:54;11.53;;;9.77;;
10550;SDS011;5324;50.684;3.862;2023-04-22T05:25:20;13.10;;;10.13;;
10550;SDS011;5324;50.684;3.862;2023-04-22T05:27:46;11.17;;;9.97;;
10550;SDS011;5324;50.684;3.862;2023-04-22T05:30:12;11.27;;;9.37;;
10550;SDS011;5324;50.684;3.862;2023-04-22T05:32:38;11.63;;;10.13;;
10550;SDS011;5324;50.684;3.862;2023-04-22T05:35:04;12.17;;;9.60;;
10550;SDS011;5324;50.684;3.862;2023-04-22T05:37:30;13.60;;;11.27;;
10550;SDS011;5324;50.684;3.862;2023-04-22T05:39:56;14.13;;;11.27;;
10550;SDS011;5324;50.684;3.862;2023-04-22T05:42:22;16.10;;;12.40;;
10550;SDS011;5324;50.684;3.862;2023-04-22T05:44:48;14.97;;;11.47;;
10550;SDS011;5324;50.684;3.862;2023-04-22T05:47:15;13.50;;;11.47;;
10550;SDS011;5324;50.684;3.862;2023-04-22T05:49:41;13.43;;;11.43;;
10550;SDS011;5324;50.684;3.862;2023-04-22T05:52:07;13.73;;;11.23;;
10550;SDS011;5324;50.684;3.862;2023-04-22T05:54:33;14.33;;;12.17;;
10550;SDS011;5324;50.684;3.862;2023-04-22T05:56:59;17.27;;;13.13;;
10550;SDS011;5324;50.684;3.862;2023-04-22T05:59:26;15.77;;;12.73;;
10550;SDS011;5324;50.684;3.862;2023-04-22T06:01:52;15.57;;;12.33;;
10550;SDS011;5324;50.684;3.862;2023-04-22T06:04:18;15.63;;;12.73;;
10550;SDS011;5324;50.684;3.862;2023-04-22T06:06:44;16.80;;;12.73;;
10550;SDS011;5324;50.684;3.862;2023-04-22T06:09:11;16.27;;;12.73;;
10550;SDS011;5324;50.684;3.862;2023-04-22T06:11:37;15.77;;;12.13;;
10550;SDS011;5324;50.684;3.862;2023-04-22T06:14:04;15.67;;;13.40;;
10550;SDS011;5324;50.684;3.862;2023-04-22T06:16:30;20.23;;;14.83;;
10550;SDS011;5324;50.684;3.862;2023-04-22T06:18:56;17.73;;;13.93;;
10550;SDS011;5324;50.684;3.862;2023-04-22T06:21:22;21.33;;;15.63;;
10550;SDS011;5324;50.684;3.862;2023-04-22T06:23:48;19.63;;;14.87;;
10550;SDS011;5324;50.684;3.862;2023-04-22T06:26:14;18.77;;;14.73;;
10550;SDS011;5324;50.684;3.862;2023-04-22T06:28:41;18.47;;;14.50;;
10550;SDS011;5324;50.684;3.862;2023-04-22T06:31:07;20.17;;;16.13;;
10550;SDS011;5324;50.684;3.862;2023-04-22T06:33:33;20.40;;;16.20;;
10550;SDS011;5324;50.684;3.862;2023-04-22T06:35:59;20.87;;;16.30;;
10550;SDS011;5324;50.684;3.862;2023-04-22T06:38:25;21.93;;;16.57;;
10550;SDS011;5324;50.684;3.862;2023-04-22T06:40:51;23.93;;;17.97;;
10550;SDS011;5324;50.684;3.862;2023-04-22T06:43:17;22.30;;;17.07;;
10550;SDS011;5324;50.684;3.862;2023-04-22T06:45:43;20.43;;;16.07;;
10550;SDS011;5324;50.684;3.862;2023-04-22T06:48:09;24.27;;;17.80;;
10550;SDS011;5324;50.684;3.862;2023-04-22T06:50:35;23.00;;;17.83;;
10550;SDS011;5324;50.684;3.862;2023-04-22T06:53:01;24.83;;;18.57;;
10550;SDS011;5324;50.684;3.862;2023-04-22T06:55:27;23.07;;;17.83;;
10550;SDS011;5324;50.684;3.862;2023-04-22T06:57:53;23.30;;;18.33;;
10550;SDS011;5324;50.684;3.862;2023-04-22T07:00:19;22.27;;;17.40;;
10550;SDS011;5324;50.684;3.862;2023-04-22T07:02:45;23.03;;;17.67;;
10550;SDS011;5324;50.684;3.862;2023-04-22T07:05:11;22.53;;;17.33;;
10550;SDS011;5324;50.684;3.862;2023-04-22T07:07:37;25.43;;;18.77;;
10550;SDS011;5324;50.684;3.862;2023-04-22T07:10:03;26.03;;;18.73;;
10550;SDS011;5324;50.684;3.862;2023-04-22T07:12:30;22.77;;;17.53;;
10550;SDS011;5324;50.684;3.862;2023-04-22T07:14:56;24.90;;;19.47;;
10550;SDS011;5324;50.684;3.862;2023-04-22T07:17:22;28.10;;;20.50;;
10550;SDS011;5324;50.684;3.862;2023-04-22T07:19:48;28.73;;;20.17;;
10550;SDS011;5324;50.684;3.862;2023-04-22T07:22:14;26.17;;;19.70;;
10550;SDS011;5324;50.684;3.862;2023-04-22T07:24:40;27.30;;;19.57;;
10550;SDS011;5324;50.684;3.862;2023-04-22T07:27:06;25.97;;;19.47;;
10550;SDS011;5324;50.684;3.862;2023-04-22T07:29:32;26.13;;;19.10;;
10550;SDS011;5324;50.684;3.862;2023-04-22T07:31:58;23.67;;;18.53;;
10550;SDS011;5324;50.684;3.862;2023-04-22T07:34:24;26.30;;;17.90;;
10550;SDS011;5324;50.684;3.862;2023-04-22T07:36:50;23.73;;;18.43;;
10550;SDS011;5324;50.684;3.862;2023-04-22T07:39:17;23.67;;;17.83;;
10550;SDS011;5324;50.684;3.862;2023-04-22T07:41:43;23.53;;;17.67;;
10550;SDS011;5324;50.684;3.862;2023-04-22T07:44:10;23.40;;;18.13;;
10550;SDS011;5324;50.684;3.862;2023-04-22T07:46:40;23.00;;;18.67;;
10550;SDS011;5324;50.684;3.862;2023-04-22T07:49:06;26.03;;;17.77;;
10550;SDS011;5324;50.684;3.862;2023-04-22T07:51:32;22.57;;;17.93;;
10550;SDS011;5324;50.684;3.862;2023-04-22T07:53:59;24.47;;;18.57;;
10550;SDS011;5324;50.684;3.862;2023-04-22T07:56:25;24.93;;;18.63;;
10550;SDS011;5324;50.684;3.862;2023-04-22T07:58:51;25.67;;;18.83;;
10550;SDS011;5324;50.684;3.862;2023-04-22T08:01:17;24.20;;;17.37;;
10550;SDS011;5324;50.684;3.862;2023-04-22T08:03:43;21.80;;;17.60;;
10550;SDS011;5324;50.684;3.862;2023-04-22T08:06:09;20.67;;;16.67;;
10550;SDS011;5324;50.684;3.862;2023-04-22T08:08:36;21.13;;;15.53;;
10550;SDS011;5324;50.684;3.862;2023-04-22T08:11:02;19.53;;;15.50;;
10550;SDS011;5324;50.684;3.862;2023-04-22T08:13:29;20.53;;;15.17;;
10550;SDS011;5324;50.684;3.862;2023-04-22T08:15:55;20.67;;;14.93;;
10550;SDS011;5324;50.684;3.862;2023-04-22T08:18:23;17.37;;;14.10;;
10550;SDS011;5324;50.684;3.862;2023-04-22T08:20:50;18.87;;;13.20;;
10550;SDS011;5324;50.684;3.862;2023-04-22T08:23:16;16.23;;;13.13;;
10550;SDS011;5324;50.684;3.862;2023-04-22T08:25:42;16.93;;;13.00;;
10550;SDS011;5324;50.684;3.862;2023-04-22T08:28:09;15.10;;;12.33;;
10550;SDS011;5324;50.684;3.862;2023-04-22T08:30:35;16.17;;;12.40;;
10550;SDS011;5324;50.684;3.862;2023-04-22T08:33:01;16.13;;;13.43;;
10550;SDS011;5324;50.684;3.862;2023-04-22T08:35:27;15.53;;;11.80;;
10550;SDS011;5324;50.684;3.862;2023-04-22T08:37:53;18.50;;;13.03;;
10550;SDS011;5324;50.684;3.862;2023-04-22T08:40:19;16.27;;;13.00;;
10550;SDS011;5324;50.684;3.862;2023-04-22T08:42:45;16.63;;;13.37;;
10550;SDS011;5324;50.684;3.862;2023-04-22T08:45:11;15.47;;;12.10;;
10550;SDS011;5324;50.684;3.862;2023-04-22T08:47:38;16.43;;;12.73;;
10550;SDS011;5324;50.684;3.862;2023-04-22T08:50:05;23.20;;;15.77;;
10550;SDS011;5324;50.684;3.862;2023-04-22T08:52:32;21.17;;;15.17;;
10550;SDS011;5324;50.684;3.862;2023-04-22T08:54:58;19.77;;;14.20;;
10550;SDS011;5324;50.684;3.862;2023-04-22T08:57:25;18.93;;;14.47;;
10550;SDS011;5324;50.684;3.862;2023-04-22T08:59:51;19.13;;;14.87;;
10550;SDS011;5324;50.684;3.862;2023-04-22T09:02:19;19.90;;;14.47;;
10550;SDS011;5324;50.684;3.862;2023-04-22T09:04:46;19.60;;;14.43;;
10550;SDS011;5324;50.684;3.862;2023-04-22T09:07:17;22.47;;;15.07;;
10550;SDS011;5324;50.684;3.862;2023-04-22T09:09:45;19.10;;;14.40;;
10550;SDS011;5324;50.684;3.862;2023-04-22T09:12:12;19.17;;;14.43;;
10550;SDS011;5324;50.684;3.862;2023-04-22T09:14:38;19.33;;;14.53;;
10550;SDS011;5324;50.684;3.862;2023-04-22T09:17:04;19.83;;;15.10;;
10550;SDS011;5324;50.684;3.862;2023-04-22T09:19:30;19.10;;;15.50;;
10550;SDS011;5324;50.684;3.862;2023-04-22T09:21:56;19.87;;;15.13;;
10550;SDS011;5324;50.684;3.862;2023-04-22T09:24:23;21.43;;;16.00;;
10550;SDS011;5324;50.684;3.862;2023-04-22T09:26:49;22.80;;;15.57;;
10550;SDS011;5324;50.684;3.862;2023-04-22T09:29:15;21.00;;;15.90;;
10550;SDS011;5324;50.684;3.862;2023-04-22T09:31:46;25.03;;;17.40;;
10550;SDS011;5324;50.684;3.862;2023-04-22T09:34:13;20.37;;;16.33;;
10550;SDS011;5324;50.684;3.862;2023-04-22T09:36:39;24.77;;;17.43;;
10550;SDS011;5324;50.684;3.862;2023-04-22T09:39:07;22.83;;;16.50;;
10550;SDS011;5324;50.684;3.862;2023-04-22T09:41:35;26.00;;;18.27;;
10550;SDS011;5324;50.684;3.862;2023-04-22T09:44:03;29.83;;;18.20;;
10550;SDS011;5324;50.684;3.862;2023-04-22T09:46:30;29.33;;;19.33;;
10550;SDS011;5324;50.684;3.862;2023-04-22T09:48:57;25.90;;;19.03;;
10550;SDS011;5324;50.684;3.862;2023-04-22T09:51:24;29.37;;;18.87;;
10550;SDS011;5324;50.684;3.862;2023-04-22T09:54:00;24.43;;;18.20;;
10550;SDS011;5324;50.684;3.862;2023-04-22T09:57:09;25.97;;;18.23;;
10550;SDS011;5324;50.684;3.862;2023-04-22T09:59:28;23.03;;;17.57;;
10550;SDS011;5324;50.684;3.862;2023-04-22T10:01:59;22.93;;;18.33;;
10550;SDS011;5324;50.684;3.862;2023-04-22T10:04:28;24.07;;;18.80;;
10550;SDS011;5324;50.684;3.862;2023-04-22T10:06:55;21.80;;;17.27;;
10550;SDS011;5324;50.684;3.862;2023-04-22T10:09:22;22.33;;;16.63;;
10550;SDS011;5324;50.684;3.862;2023-04-22T10:11:50;22.33;;;16.77;;
10550;SDS011;5324;50.684;3.862;2023-04-22T10:14:18;21.77;;;15.93;;
10550;SDS011;5324;50.684;3.862;2023-04-22T10:16:45;20.80;;;15.90;;
10550;SDS011;5324;50.684;3.862;2023-04-22T10:19:14;22.53;;;16.47;;
10550;SDS011;5324;50.684;3.862;2023-04-22T10:21:42;25.07;;;17.63;;
10550;SDS011;5324;50.684;3.862;2023-04-22T10:24:16;24.20;;;16.97;;
10550;SDS011;5324;50.684;3.862;2023-04-22T10:26:46;22.53;;;15.37;;
10550;SDS011;5324;50.684;3.862;2023-04-22T10:29:14;22.27;;;16.00;;
10550;SDS011;5324;50.684;3.862;2023-04-22T10:31:50;19.50;;;15.10;;
10550;SDS011;5324;50.684;3.862;2023-04-22T10:34:17;21.10;;;15.30;;
10550;SDS011;5324;50.684;3.862;2023-04-22T10:37:19;18.90;;;14.23;;
10550;SDS011;5324;50.684;3.862;2023-04-22T10:39:39;19.93;;;14.50;;
10550;SDS011;5324;50.684;3.862;2023-04-22T10:42:09;17.80;;;14.57;;
10550;SDS011;5324;50.684;3.862;2023-04-22T10:44:46;23.70;;;17.13;;
10550;SDS011;5324;50.684;3.862;2023-04-22T10:47:23;18.57;;;14.17;;
10550;SDS011;5324;50.684;3.862;2023-04-22T10:49:49;17.93;;;13.60;;
10550;SDS011;5324;50.684;3.862;2023-04-22T10:52:27;20.70;;;13.87;;
10550;SDS011;5324;50.684;3.862;2023-04-22T10:57:20;16.57;;;11.63;;
10550;SDS011;5324;50.684;3.862;2023-04-22T10:59:56;14.43;;;10.37;;
10550;SDS011;5324;50.684;3.862;2023-04-22T11:02:24;13.50;;;10.57;;
10550;SDS011;5324;50.684;3.862;2023-04-22T11:04:50;13.27;;;10.40;;
10550;SDS011;5324;50.684;3.862;2023-04-22T11:09:51;16.80;;;9.93;;
10550;SDS011;5324;50.684;3.862;2023-04-22T11:17:34;15.30;;;11.50;;
10550;SDS011;5324;50.684;3.862;2023-04-22T11:20:00;17.27;;;11.87;;
10550;SDS011;5324;50.684;3.862;2023-04-22T11:22:26;16.53;;;12.20;;
10550;SDS011;5324;50.684;3.862;2023-04-22T11:24:59;12.30;;;10.43;;
10550;SDS011;5324;50.684;3.862;2023-04-22T11:27:26;13.63;;;10.60;;
10550;SDS011;5324;50.684;3.862;2023-04-22T11:30:07;14.33;;;10.83;;
10550;SDS011;5324;50.684;3.862;2023-04-22T11:32:33;12.87;;;9.93;;
10550;SDS011;5324;50.684;3.862;2023-04-22T11:35:04;15.37;;;10.23;;
10550;SDS011;5324;50.684;3.862;2023-04-22T11:37:30;14.07;;;10.47;;
10550;SDS011;5324;50.684;3.862;2023-04-22T11:39:59;11.70;;;9.13;;
10550;SDS011;5324;50.684;3.862;2023-04-22T11:42:26;15.67;;;9.90;;
10550;SDS011;5324;50.684;3.862;2023-04-22T11:44:52;12.03;;;9.43;;
10550;SDS011;5324;50.684;3.862;2023-04-22T11:47:18;12.43;;;9.10;;
10550;SDS011;5324;50.684;3.862;2023-04-22T11:49:53;12.53;;;10.07;;
10550;SDS011;5324;50.684;3.862;2023-04-22T11:52:20;11.20;;;9.50;;
10550;SDS011;5324;50.684;3.862;2023-04-22T11:54:46;10.70;;;8.37;;
10550;SDS011;5324;50.684;3.862;2023-04-22T11:57:12;11.70;;;8.90;;
10550;SDS011;5324;50.684;3.862;2023-04-22T11:59:40;10.77;;;8.90;;
10550;SDS011;5324;50.684;3.862;2023-04-22T12:02:07;9.77;;;8.23;;
10550;SDS011;5324;50.684;3.862;2023-04-22T12:04:37;11.63;;;9.70;;
10550;SDS011;5324;50.684;3.862;2023-04-22T12:07:05;11.57;;;9.10;;
10550;SDS011;5324;50.684;3.862;2023-04-22T12:09:32;12.03;;;9.17;;
10550;SDS011;5324;50.684;3.862;2023-04-22T12:11:58;11.80;;;9.70;;
10550;SDS011;5324;50.684;3.862;2023-04-22T12:14:31;12.73;;;10.00;;
10550;SDS011;5324;50.684;3.862;2023-04-22T12:16:58;12.20;;;9.73;;
10550;SDS011;5324;50.684;3.862;2023-04-22T12:19:28;13.30;;;9.40;;
10550;SDS011;5324;50.684;3.862;2023-04-22T12:21:57;11.83;;;9.63;;
10550;SDS011;5324;50.684;3.862;2023-04-22T12:24:27;10.97;;;9.33;;
10550;SDS011;5324;50.684;3.862;2023-04-22T12:26:53;10.63;;;9.47;;
10550;SDS011;5324;50.684;3.862;2023-04-22T12:29:28;12.97;;;9.30;;
10550;SDS011;5324;50.684;3.862;2023-04-22T12:31:54;11.43;;;8.67;;
10550;SDS011;5324;50.684;3.862;2023-04-22T12:34:21;10.83;;;9.33;;
10550;SDS011;5324;50.684;3.862;2023-04-22T12:36:47;10.67;;;8.83;;
10550;SDS011;5324;50.684;3.862;2023-04-22T12:39:13;11.87;;;9.50;;
10550;SDS011;5324;50.684;3.862;2023-04-22T12:41:39;11.77;;;9.47;;
10550;SDS011;5324;50.684;3.862;2023-04-22T12:44:05;11.80;;;9.30;;
10550;SDS011;5324;50.684;3.862;2023-04-22T12:46:32;11.00;;;8.90;;
10550;SDS011;5324;50.684;3.862;2023-04-22T12:48:59;10.00;;;8.50;;
10550;SDS011;5324;50.684;3.862;2023-04-22T12:51:25;9.77;;;8.10;;
10550;SDS011;5324;50.684;3.862;2023-04-22T12:53:51;11.33;;;8.93;;
10550;SDS011;5324;50.684;3.862;2023-04-22T12:56:17;10.33;;;8.87;;
10550;SDS011;5324;50.684;3.862;2023-04-22T12:58:43;11.00;;;9.07;;
10550;SDS011;5324;50.684;3.862;2023-04-22T13:01:09;12.10;;;9.43;;
10550;SDS011;5324;50.684;3.862;2023-04-22T13:03:35;11.60;;;9.37;;
10550;SDS011;5324;50.684;3.862;2023-04-22T13:06:01;14.77;;;10.60;;
10550;SDS011;5324;50.684;3.862;2023-04-22T13:08:27;11.23;;;8.63;;
10550;SDS011;5324;50.684;3.862;2023-04-22T13:10:55;11.00;;;9.10;;
10550;SDS011;5324;50.684;3.862;2023-04-22T13:13:21;11.37;;;9.60;;
10550;SDS011;5324;50.684;3.862;2023-04-22T13:15:47;11.07;;;9.37;;
10550;SDS011;5324;50.684;3.862;2023-04-22T13:18:17;12.33;;;10.10;;
10550;SDS011;5324;50.684;3.862;2023-04-22T13:20:43;13.20;;;10.13;;
10550;SDS011;5324;50.684;3.862;2023-04-22T13:23:09;10.27;;;9.13;;
10550;SDS011;5324;50.684;3.862;2023-04-22T13:25:37;11.30;;;9.50;;
10550;SDS011;5324;50.684;3.862;2023-04-22T13:28:03;13.70;;;10.63;;
10550;SDS011;5324;50.684;3.862;2023-04-22T13:30:29;12.50;;;9.97;;
10550;SDS011;5324;50.684;3.862;2023-04-22T13:32:55;13.70;;;10.50;;
10550;SDS011;5324;50.684;3.862;2023-04-22T13:35:21;13.53;;;10.17;;
10550;SDS011;5324;50.684;3.862;2023-04-22T13:37:47;11.77;;;9.30;;
10550;SDS011;5324;50.684;3.862;2023-04-22T13:40:13;12.33;;;9.60;;
10550;SDS011;5324;50.684;3.862;2023-04-22T13:42:40;10.77;;;9.63;;
10550;SDS011;5324;50.684;3.862;2023-04-22T13:45:08;12.90;;;10.83;;
10550;SDS011;5324;50.684;3.862;2023-04-22T13:47:34;11.30;;;9.40;;
10550;SDS011;5324;50.684;3.862;2023-04-22T13:50:00;11.53;;;9.57;;
10550;SDS011;5324;50.684;3.862;2023-04-22T13:52:27;12.00;;;9.97;;
10550;SDS011;5324;50.684;3.862;2023-04-22T13:54:53;12.13;;;10.80;;
10550;SDS011;5324;50.684;3.862;2023-04-22T13:57:19;11.93;;;10.43;;
10550;SDS011;5324;50.684;3.862;2023-04-22T13:59:47;11.40;;;9.90;;
10550;SDS011;5324;50.684;3.862;2023-04-22T14:02:13;15.07;;;10.37;;
10550;SDS011;5324;50.684;3.862;2023-04-22T14:04:39;10.13;;;8.70;;
10550;SDS011;5324;50.684;3.862;2023-04-22T14:07:06;14.23;;;9.43;;
10550;SDS011;5324;50.684;3.862;2023-04-22T14:09:32;12.00;;;8.90;;
10550;SDS011;5324;50.684;3.862;2023-04-22T14:11:58;12.00;;;9.10;;
10550;SDS011;5324;50.684;3.862;2023-04-22T14:14:25;12.83;;;9.07;;
10550;SDS011;5324;50.684;3.862;2023-04-22T14:16:51;11.70;;;9.60;;
10550;SDS011;5324;50.684;3.862;2023-04-22T14:19:18;13.70;;;8.47;;
10550;SDS011;5324;50.684;3.862;2023-04-22T14:21:45;10.03;;;9.00;;
10550;SDS011;5324;50.684;3.862;2023-04-22T14:24:11;9.60;;;8.50;;
10550;SDS011;5324;50.684;3.862;2023-04-22T14:26:37;10.67;;;8.30;;
10550;SDS011;5324;50.684;3.862;2023-04-22T14:29:03;12.77;;;8.10;;
10550;SDS011;5324;50.684;3.862;2023-04-22T14:31:29;9.90;;;7.40;;
10550;SDS011;5324;50.684;3.862;2023-04-22T14:33:55;8.20;;;7.27;;
10550;SDS011;5324;50.684;3.862;2023-04-22T14:36:22;7.50;;;6.60;;
10550;SDS011;5324;50.684;3.862;2023-04-22T14:38:48;8.30;;;6.50;;
10550;SDS011;5324;50.684;3.862;2023-04-22T14:41:14;8.43;;;6.47;;
10550;SDS011;5324;50.684;3.862;2023-04-22T14:43:40;7.53;;;6.47;;
10550;SDS011;5324;50.684;3.862;2023-04-22T14:46:06;8.07;;;6.47;;